createdAt,value
2022-08-10T00:00:00.383Z,44.5
2022-08-10T00:01:00.287Z,44.4
2022-08-10T00:02:00.410Z,44.6
2022-08-10T00:03:00.302Z,44.6
2022-08-10T00:04:00.316Z,44.5
2022-08-10T00:05:00.427Z,44.4
2022-08-10T00:06:00.425Z,44.7
2022-08-10T00:07:00.333Z,44.3
2022-08-10T00:08:00.345Z,44.0
2022-08-10T00:09:00.355Z,44.2
2022-08-10T00:10:00.350Z,44.3
2022-08-10T00:11:00.400Z,44.2
2022-08-10T00:12:00.391Z,44.2
2022-08-10T00:13:00.311Z,44.1
2022-08-10T00:14:00.701Z,44.1
2022-08-10T00:15:00.271Z,44.1
2022-08-10T00:16:00.373Z,44.3
2022-08-10T00:17:00.442Z,44.0
2022-08-10T00:18:00.391Z,44.0
2022-08-10T00:19:00.305Z,43.9
2022-08-10T00:20:02.372Z,44.1
2022-08-10T00:21:00.361Z,44.1
2022-08-10T00:22:00.348Z,44.0
2022-08-10T00:23:00.285Z,44.1
2022-08-10T00:24:00.369Z,44.1
2022-08-10T00:25:00.270Z,44.2
2022-08-10T00:26:00.323Z,44.2
2022-08-10T00:27:58.906Z,44.3
2022-08-10T00:28:03.762Z,44.3
2022-08-10T00:29:00.394Z,44.6
2022-08-10T00:30:00.620Z,44.3
2022-08-10T00:31:00.387Z,44.5
2022-08-10T00:32:00.340Z,44.5
2022-08-10T00:33:00.347Z,44.3
2022-08-10T00:34:00.321Z,44.3
2022-08-10T00:35:00.297Z,44.0
2022-08-10T00:36:00.383Z,44.3
2022-08-10T00:37:00.304Z,44.1
2022-08-10T00:38:00.283Z,44.2
2022-08-10T00:39:00.393Z,44.2
2022-08-10T00:40:00.452Z,44.3
2022-08-10T00:41:00.365Z,44.5
2022-08-10T00:42:06.880Z,44.1
2022-08-10T00:43:00.288Z,44.2
2022-08-10T00:44:00.271Z,44.1
2022-08-10T00:45:00.281Z,44.0
2022-08-10T00:46:00.596Z,44.0
2022-08-10T00:47:00.347Z,44.1
2022-08-10T00:48:00.459Z,44.2
2022-08-10T00:49:00.794Z,44.4
2022-08-10T00:50:00.325Z,44.5
2022-08-10T00:51:00.401Z,44.7
2022-08-10T00:52:00.322Z,44.7
2022-08-10T00:53:00.321Z,44.7
2022-08-10T00:54:00.411Z,44.8
2022-08-10T00:55:00.289Z,44.9
2022-08-10T00:56:34.993Z,44.7
2022-08-10T00:57:16.052Z,44.8
2022-08-10T00:58:00.304Z,44.9
2022-08-10T00:59:00.332Z,44.8
2022-08-10T01:00:00.886Z,44.9
2022-08-10T01:01:00.383Z,45.1
2022-08-10T01:02:09.146Z,45.1
2022-08-10T01:03:00.385Z,45.2
2022-08-10T01:04:39.541Z,45.1
2022-08-10T01:05:01.728Z,44.7
2022-08-10T01:06:00.438Z,44.8
2022-08-10T01:07:00.302Z,44.8
2022-08-10T01:08:00.332Z,44.8
2022-08-10T01:09:00.387Z,44.8
2022-08-10T01:10:00.475Z,44.8
2022-08-10T01:11:00.321Z,44.9
2022-08-10T01:12:39.888Z,45.0
2022-08-10T01:13:00.309Z,45.2
2022-08-10T01:14:00.322Z,45.4
2022-08-10T01:15:00.289Z,45.4
2022-08-10T01:16:00.383Z,45.6
2022-08-10T01:17:00.301Z,45.7
2022-08-10T01:18:00.303Z,45.8
2022-08-10T01:19:00.900Z,45.9
2022-08-10T01:20:00.390Z,46.0
2022-08-10T01:21:00.433Z,46.0
2022-08-10T01:22:00.291Z,45.9
2022-08-10T01:23:00.337Z,45.9
2022-08-10T01:24:00.397Z,45.9
2022-08-10T01:25:00.368Z,45.8
2022-08-10T01:26:10.561Z,45.6
2022-08-10T01:27:00.357Z,45.5
2022-08-10T01:28:00.354Z,45.7
2022-08-10T01:29:00.404Z,45.7
2022-08-10T01:30:00.323Z,45.6
2022-08-10T01:31:00.327Z,45.3
2022-08-10T01:32:00.486Z,45.4
2022-08-10T01:33:00.307Z,45.3
2022-08-10T01:34:02.632Z,45.1
2022-08-10T01:35:00.376Z,45.0
2022-08-10T01:36:00.573Z,45.0
2022-08-10T01:37:00.310Z,44.7
2022-08-10T01:38:00.419Z,44.8
2022-08-10T01:39:00.331Z,44.7
2022-08-10T01:40:00.328Z,44.6
2022-08-10T01:41:00.307Z,44.2
2022-08-10T01:42:00.337Z,44.1
2022-08-10T01:43:08.554Z,44.1
2022-08-10T01:44:03.617Z,44.0
2022-08-10T01:45:00.304Z,44.2
2022-08-10T01:46:00.334Z,44.1
2022-08-10T01:47:00.322Z,44.1
2022-08-10T01:48:00.331Z,44.1
2022-08-10T01:49:00.323Z,44.3
2022-08-10T01:50:00.395Z,44.3
2022-08-10T01:51:00.648Z,44.6
2022-08-10T01:52:00.824Z,44.4
2022-08-10T01:53:00.320Z,44.3
2022-08-10T01:54:00.285Z,44.4
2022-08-10T01:55:00.349Z,44.4
2022-08-10T01:56:00.414Z,44.5
2022-08-10T01:57:00.375Z,44.5
2022-08-10T01:58:00.296Z,44.6
2022-08-10T01:59:00.370Z,44.7
2022-08-10T02:00:02.520Z,44.7
2022-08-10T02:01:00.404Z,44.8
2022-08-10T02:02:00.458Z,44.9
2022-08-10T02:03:00.346Z,44.8
2022-08-10T02:04:01.593Z,45.0
2022-08-10T02:05:00.307Z,45.1
2022-08-10T02:06:00.426Z,45.1
2022-08-10T02:07:00.413Z,45.1
2022-08-10T02:08:00.343Z,45.4
2022-08-10T02:09:06.636Z,45.5
2022-08-10T02:10:00.317Z,45.6
2022-08-10T02:11:00.299Z,45.6
2022-08-10T02:12:07.089Z,45.8
2022-08-10T02:13:00.381Z,45.7
2022-08-10T02:14:00.300Z,45.8
2022-08-10T02:15:00.303Z,45.8
2022-08-10T02:16:01.536Z,45.9
2022-08-10T02:17:00.420Z,45.9
2022-08-10T02:18:01.845Z,45.9
2022-08-10T02:19:00.302Z,45.9
2022-08-10T02:20:00.397Z,46.1
2022-08-10T02:21:00.328Z,46.0
2022-08-10T02:22:35.797Z,46.0
2022-08-10T02:23:00.423Z,46.0
2022-08-10T02:24:00.574Z,46.1
2022-08-10T02:25:00.320Z,46.2
2022-08-10T02:26:00.411Z,46.0
2022-08-10T02:27:00.306Z,46.0
2022-08-10T02:28:00.332Z,46.1
2022-08-10T02:29:00.318Z,46.1
2022-08-10T02:30:00.320Z,46.2
2022-08-10T02:31:00.378Z,46.1
2022-08-10T02:32:00.588Z,45.8
2022-08-10T02:33:00.410Z,45.9
2022-08-10T02:34:00.319Z,45.8
2022-08-10T02:35:00.453Z,45.7
2022-08-10T02:36:00.342Z,45.4
2022-08-10T02:37:00.682Z,45.2
2022-08-10T02:38:00.392Z,45.4
2022-08-10T02:39:00.985Z,45.6
2022-08-10T02:40:00.378Z,45.4
2022-08-10T02:45:02.455Z,45.5
2022-08-10T02:45:12.998Z,45.2
2022-08-10T02:45:21.100Z,44.8
2022-08-10T02:45:23.045Z,45.0
2022-08-10T02:45:27.247Z,44.4
2022-08-10T02:46:00.330Z,44.5
2022-08-10T02:47:00.320Z,44.6
2022-08-10T02:48:00.697Z,44.5
2022-08-10T02:49:00.622Z,44.4
2022-08-10T02:50:00.410Z,44.4
2022-08-10T02:51:00.297Z,44.4
2022-08-10T02:52:06.666Z,44.2
2022-08-10T02:53:00.554Z,44.0
2022-08-10T02:54:00.313Z,44.1
2022-08-10T02:55:04.706Z,44.2
2022-08-10T02:56:00.315Z,44.3
2022-08-10T02:57:00.336Z,44.2
2022-08-10T02:58:13.358Z,43.8
2022-08-10T02:59:00.398Z,43.9
2022-08-10T03:00:00.299Z,43.9
2022-08-10T03:01:00.370Z,43.6
2022-08-10T03:02:00.339Z,43.9
2022-08-10T03:03:00.299Z,43.8
2022-08-10T03:04:00.331Z,43.4
2022-08-10T03:05:00.387Z,43.2
2022-08-10T03:06:00.422Z,43.2
2022-08-10T03:07:00.326Z,42.8
2022-08-10T03:08:00.325Z,42.8
2022-08-10T03:09:00.371Z,42.9
2022-08-10T03:10:00.450Z,43.0
2022-08-10T03:11:00.387Z,43.0
2022-08-10T03:12:36.685Z,43.1
2022-08-10T03:13:00.357Z,43.0
2022-08-10T03:14:00.309Z,43.0
2022-08-10T03:15:00.353Z,42.5
2022-08-10T03:16:00.398Z,42.3
2022-08-10T03:17:00.299Z,42.3
2022-08-10T03:18:00.352Z,42.2
2022-08-10T03:19:00.360Z,42.1
2022-08-10T03:20:35.901Z,42.1
2022-08-10T03:21:00.419Z,41.8
2022-08-10T03:22:00.444Z,41.8
2022-08-10T03:23:00.299Z,41.9
2022-08-10T03:24:00.318Z,41.5
2022-08-10T03:25:00.300Z,41.5
2022-08-10T03:26:00.332Z,41.4
2022-08-10T03:27:00.360Z,41.2
2022-08-10T03:28:00.395Z,41.3
2022-08-10T03:29:00.305Z,41.0
2022-08-10T03:30:29.982Z,40.9
2022-08-10T03:31:00.331Z,40.7
2022-08-10T03:32:00.296Z,40.8
2022-08-10T03:33:00.331Z,40.7
2022-08-10T03:34:00.479Z,40.7
2022-08-10T03:35:00.302Z,40.7
2022-08-10T03:36:41.371Z,40.7
2022-08-10T03:37:00.305Z,40.6
2022-08-10T03:38:00.493Z,40.7
2022-08-10T03:39:00.294Z,40.5
2022-08-10T03:40:00.327Z,40.3
2022-08-10T03:41:00.372Z,40.2
2022-08-10T03:42:00.290Z,40.2
2022-08-10T03:43:00.516Z,39.9
2022-08-10T03:44:00.336Z,39.3
2022-08-10T03:45:00.306Z,39.5
2022-08-10T03:46:00.328Z,39.5
2022-08-10T03:47:00.291Z,39.5
2022-08-10T03:48:00.300Z,39.5
2022-08-10T03:49:00.892Z,39.4
2022-08-10T03:50:03.581Z,39.3
2022-08-10T03:51:00.388Z,39.2
2022-08-10T03:52:00.299Z,39.1
2022-08-10T03:53:00.332Z,39.2
2022-08-10T03:54:05.218Z,39.1
2022-08-10T03:55:00.509Z,38.7
2022-08-10T03:56:29.548Z,38.6
2022-08-10T03:57:00.425Z,38.6
2022-08-10T03:58:00.429Z,38.7
2022-08-10T03:59:00.315Z,38.8
2022-08-10T04:00:00.450Z,38.6
2022-08-10T04:01:00.479Z,38.5
2022-08-10T04:02:44.010Z,38.2
2022-08-10T04:03:00.300Z,37.9
2022-08-10T04:04:11.510Z,38.0
2022-08-10T04:05:00.320Z,37.8
2022-08-10T04:06:00.440Z,37.7
2022-08-10T04:07:00.318Z,37.8
2022-08-10T04:08:00.346Z,37.4
2022-08-10T04:09:00.317Z,37.3
2022-08-10T04:10:00.324Z,37.0
2022-08-10T04:11:00.304Z,36.8
2022-08-10T04:12:00.408Z,36.9
2022-08-10T04:13:00.300Z,36.6
2022-08-10T04:14:00.320Z,36.6
2022-08-10T04:15:00.316Z,36.9
2022-08-10T04:16:00.380Z,36.9
2022-08-10T04:17:00.328Z,36.8
2022-08-10T04:18:05.540Z,36.6
2022-08-10T04:19:00.463Z,36.6
2022-08-10T04:20:00.322Z,36.5
2022-08-10T04:21:00.315Z,36.5
2022-08-10T04:22:00.403Z,36.4
2022-08-10T04:23:00.385Z,36.4
2022-08-10T04:24:00.326Z,36.1
2022-08-10T04:25:00.311Z,36.0
2022-08-10T04:26:00.318Z,36.1
2022-08-10T04:27:00.372Z,36.1
2022-08-10T04:28:00.434Z,35.7
2022-08-10T04:29:00.320Z,35.9
2022-08-10T04:30:00.342Z,35.5
2022-08-10T04:31:00.465Z,35.4
2022-08-10T04:32:00.298Z,35.3
2022-08-10T04:33:00.317Z,34.8
2022-08-10T04:34:00.542Z,34.9
2022-08-10T04:35:00.311Z,35.2
2022-08-10T04:36:00.407Z,35.2
2022-08-10T04:37:01.791Z,35.3
2022-08-10T04:38:00.297Z,35.3
2022-08-10T04:39:00.382Z,35.2
2022-08-10T04:40:00.504Z,35.3
2022-08-10T04:41:00.313Z,34.9
2022-08-10T04:42:00.322Z,34.9
2022-08-10T04:43:04.437Z,35.0
2022-08-10T04:44:00.298Z,34.8
2022-08-10T04:45:00.316Z,34.6
2022-08-10T04:46:00.391Z,34.7
2022-08-10T04:47:00.312Z,34.2
2022-08-10T04:48:03.270Z,34.1
2022-08-10T04:49:01.384Z,34.6
2022-08-10T04:50:00.335Z,33.9
2022-08-10T04:51:00.729Z,31.9
2022-08-10T04:52:00.311Z,28.7
2022-08-10T04:53:00.281Z,26.8
2022-08-10T04:54:03.203Z,24.2
2022-08-10T04:55:00.309Z,23.6
2022-08-10T04:56:00.325Z,23.2
2022-08-10T04:57:00.380Z,22.0
2022-08-10T04:58:00.390Z,21.8
2022-08-10T04:59:00.314Z,21.4
2022-08-10T05:00:00.333Z,20.7
2022-08-10T05:01:00.358Z,20.6
2022-08-10T05:02:27.069Z,20.4
2022-08-10T05:03:00.404Z,19.3
2022-08-10T05:04:33.932Z,19.3
2022-08-10T05:05:00.733Z,18.6
2022-08-10T05:06:00.312Z,19.0
2022-08-10T05:07:00.308Z,18.5
2022-08-10T05:08:00.317Z,18.8
2022-08-10T05:09:00.386Z,18.2
2022-08-10T05:10:06.052Z,18.3
2022-08-10T05:11:00.334Z,18.1
2022-08-10T05:12:00.458Z,17.8
2022-08-10T05:13:00.399Z,17.6
2022-08-10T05:14:00.424Z,17.6
2022-08-10T05:15:00.307Z,17.6
2022-08-10T05:16:00.325Z,17.4
2022-08-10T05:17:00.317Z,17.4
2022-08-10T05:18:08.523Z,17.0
2022-08-10T05:19:00.396Z,17.0
2022-08-10T05:20:01.985Z,16.7
2022-08-10T05:21:00.459Z,16.5
2022-08-10T05:22:04.258Z,16.7
2022-08-10T05:23:00.306Z,16.7
2022-08-10T05:24:00.332Z,16.6
2022-08-10T05:25:00.335Z,16.5
2022-08-10T05:26:00.455Z,16.1
2022-08-10T05:27:09.349Z,16.2
2022-08-10T05:28:04.412Z,16.0
2022-08-10T05:29:00.279Z,16.3
2022-08-10T05:30:02.154Z,16.2
2022-08-10T05:31:00.317Z,15.9
2022-08-10T05:32:00.372Z,16.4
2022-08-10T05:33:05.144Z,16.3
2022-08-10T05:34:00.327Z,16.4
2022-08-10T05:35:00.327Z,16.5
2022-08-10T05:36:00.315Z,16.7
2022-08-10T05:37:00.340Z,16.4
2022-08-10T05:38:12.574Z,16.8
2022-08-10T05:39:00.480Z,16.8
2022-08-10T05:40:00.400Z,17.0
2022-08-10T05:41:00.422Z,16.8
2022-08-10T05:42:01.054Z,16.7
2022-08-10T05:43:00.370Z,16.7
2022-08-10T05:44:00.323Z,16.7
2022-08-10T05:45:00.425Z,16.8
2022-08-10T05:46:18.780Z,16.8
2022-08-10T05:47:00.337Z,16.6
2022-08-10T05:48:41.657Z,16.7
2022-08-10T05:49:01.704Z,16.9
2022-08-10T05:50:00.334Z,16.7
2022-08-10T05:51:00.385Z,17.0
2022-08-10T05:52:00.335Z,17.0
2022-08-10T05:53:13.978Z,16.8
2022-08-10T05:54:03.947Z,16.7
2022-08-10T05:55:02.922Z,16.6
2022-08-10T05:56:00.406Z,16.1
2022-08-10T05:57:00.464Z,16.0
2022-08-10T05:58:00.330Z,16.1
2022-08-10T05:59:00.339Z,16.1
2022-08-10T06:00:10.758Z,16.3
2022-08-10T06:01:00.442Z,16.3
2022-08-10T06:02:32.564Z,16.3
2022-08-10T06:03:00.472Z,16.2
2022-08-10T06:04:00.387Z,16.2
2022-08-10T06:05:00.299Z,16.2
2022-08-10T06:06:00.317Z,16.5
2022-08-10T06:07:00.303Z,16.6
2022-08-10T06:08:00.297Z,16.5
2022-08-10T06:09:00.393Z,17.0
2022-08-10T06:10:00.560Z,17.2
2022-08-10T06:12:23.309Z,16.7
2022-08-10T06:12:26.487Z,16.7
2022-08-10T06:13:00.868Z,16.4
2022-08-10T06:14:13.704Z,16.5
2022-08-10T06:15:00.405Z,16.4
2022-08-10T06:16:00.341Z,16.5
2022-08-10T06:17:00.311Z,16.5
2022-08-10T06:18:02.251Z,17.0
2022-08-10T06:19:00.299Z,17.1
2022-08-10T06:20:00.291Z,17.1
2022-08-10T06:21:00.398Z,17.3
2022-08-10T06:22:01.427Z,17.4
2022-08-10T06:23:00.336Z,16.9
2022-08-10T06:24:00.313Z,17.3
2022-08-10T06:25:32.103Z,18.0
2022-08-10T06:26:09.917Z,18.1
2022-08-10T06:27:00.397Z,17.9
2022-08-10T06:28:00.333Z,17.6
2022-08-10T06:29:03.781Z,17.5
2022-08-10T06:30:00.356Z,17.8
2022-08-10T06:31:00.346Z,17.7
2022-08-10T06:32:00.420Z,17.7
2022-08-10T06:33:00.303Z,17.8
2022-08-10T06:34:00.371Z,17.9
2022-08-10T06:35:00.320Z,18.1
2022-08-10T06:36:00.348Z,18.2
2022-08-10T06:37:00.390Z,17.9
2022-08-10T06:38:00.391Z,17.3
2022-08-10T06:39:22.998Z,17.5
2022-08-10T06:40:00.443Z,17.9
2022-08-10T06:41:00.319Z,17.9
2022-08-10T06:42:16.619Z,17.7
2022-08-10T06:43:00.548Z,18.1
2022-08-10T06:44:00.389Z,18.4
2022-08-10T06:45:00.330Z,18.2
2022-08-10T06:46:07.154Z,18.6
2022-08-10T06:47:00.299Z,18.3
2022-08-10T06:48:00.293Z,18.4
2022-08-10T06:49:00.404Z,18.3
2022-08-10T06:50:01.654Z,18.1
2022-08-10T06:51:00.437Z,18.1
2022-08-10T06:52:00.308Z,18.2
2022-08-10T06:53:00.323Z,18.2
2022-08-10T06:54:00.316Z,18.5
2022-08-10T06:55:00.645Z,18.2
2022-08-10T06:56:00.301Z,17.8
2022-08-10T06:57:17.245Z,17.6
2022-08-10T06:58:00.614Z,17.4
2022-08-10T06:59:00.326Z,17.4
2022-08-10T07:00:01.069Z,17.8
2022-08-10T07:01:00.370Z,17.8
2022-08-10T07:02:00.296Z,17.7
2022-08-10T07:03:00.324Z,17.7
2022-08-10T07:04:00.393Z,18.0
2022-08-10T07:05:00.318Z,17.9
2022-08-10T07:06:00.310Z,17.9
2022-08-10T07:07:00.421Z,17.9
2022-08-10T07:08:00.444Z,17.9
2022-08-10T07:09:00.411Z,17.7
2022-08-10T07:10:00.448Z,17.9
2022-08-10T07:11:00.317Z,18.0
2022-08-10T07:12:07.926Z,18.0
2022-08-10T07:13:00.312Z,17.8
2022-08-10T07:14:14.036Z,18.4
2022-08-10T07:15:00.423Z,18.3
2022-08-10T07:16:00.828Z,18.4
2022-08-10T07:17:00.368Z,19.0
2022-08-10T07:18:00.364Z,19.1
2022-08-10T07:19:00.327Z,19.2
2022-08-10T07:20:00.435Z,19.1
2022-08-10T07:21:00.431Z,19.0
2022-08-10T07:22:00.321Z,19.1
2022-08-10T07:23:57.126Z,19.1
2022-08-10T07:24:01.036Z,19.5
2022-08-10T07:25:00.510Z,19.5
2022-08-10T07:26:00.378Z,19.3
2022-08-10T07:27:00.288Z,19.3
2022-08-10T07:28:01.823Z,19.4
2022-08-10T07:29:00.312Z,19.6
2022-08-10T07:30:00.533Z,19.7
2022-08-10T07:31:00.537Z,19.5
2022-08-10T07:32:00.312Z,19.9
2022-08-10T07:33:00.361Z,19.9
2022-08-10T07:34:00.335Z,20.3
2022-08-10T07:35:00.358Z,19.9
2022-08-10T07:36:00.301Z,20.3
2022-08-10T07:37:00.407Z,19.7
2022-08-10T07:38:00.334Z,20.2
2022-08-10T07:39:00.319Z,20.3
2022-08-10T07:40:03.315Z,20.4
2022-08-10T07:41:00.323Z,20.6
2022-08-10T07:42:00.330Z,20.7
2022-08-10T07:43:00.562Z,21.1
2022-08-10T07:44:00.406Z,20.7
2022-08-10T07:45:00.532Z,20.9
2022-08-10T07:46:00.302Z,21.2
2022-08-10T07:47:00.290Z,21.1
2022-08-10T07:48:05.139Z,21.3
2022-08-10T07:49:00.389Z,21.4
2022-08-10T07:50:00.324Z,21.8
2022-08-10T07:51:00.320Z,22.4
2022-08-10T07:52:00.321Z,22.3
2022-08-10T07:53:00.305Z,21.6
2022-08-10T07:54:00.508Z,21.3
2022-08-10T07:55:00.364Z,21.0
2022-08-10T07:56:05.363Z,21.1
2022-08-10T07:57:00.432Z,20.9
2022-08-10T07:58:00.420Z,21.6
2022-08-10T07:59:00.370Z,21.8
2022-08-10T08:00:00.470Z,21.7
2022-08-10T08:01:00.320Z,22.4
2022-08-10T08:02:00.414Z,21.5
2022-08-10T08:03:00.347Z,21.9
2022-08-10T08:04:10.883Z,22.1
2022-08-10T08:05:00.479Z,21.4
2022-08-10T08:06:05.347Z,21.3
2022-08-10T08:07:00.303Z,21.6
2022-08-10T08:08:00.371Z,21.5
2022-08-10T08:09:00.300Z,21.5
2022-08-10T08:10:01.083Z,21.8
2022-08-10T08:11:00.403Z,22.8
2022-08-10T08:12:00.341Z,22.6
2022-08-10T08:13:00.333Z,22.3
2022-08-10T08:14:00.308Z,22.1
2022-08-10T08:15:00.664Z,22.0
2022-08-10T08:16:17.581Z,22.2
2022-08-10T08:17:00.467Z,21.9
2022-08-10T08:18:00.720Z,21.8
2022-08-10T08:19:29.812Z,21.8
2022-08-10T08:20:00.356Z,21.6
2022-08-10T08:21:00.499Z,22.0
2022-08-10T08:24:05.582Z,21.6
2022-08-10T08:24:06.415Z,22.0
2022-08-10T08:24:10.568Z,21.7
2022-08-10T08:25:00.345Z,21.8
2022-08-10T08:26:00.553Z,21.7
2022-08-10T08:27:00.347Z,21.9
2022-08-10T08:28:00.417Z,22.2
2022-08-10T08:29:00.563Z,22.1
2022-08-10T08:30:00.352Z,21.6
2022-08-10T08:31:00.363Z,22.1
2022-08-10T08:32:02.091Z,21.6
2022-08-10T08:33:00.388Z,21.5
2022-08-10T08:34:00.320Z,21.1
2022-08-10T08:35:00.500Z,21.0
2022-08-10T08:36:00.392Z,21.2
2022-08-10T08:37:00.424Z,21.6
2022-08-10T08:38:30.338Z,21.7
2022-08-10T08:39:00.361Z,21.8
2022-08-10T08:40:00.523Z,21.9
2022-08-10T08:41:00.440Z,21.9
2022-08-10T08:42:00.499Z,21.5
2022-08-10T08:43:00.463Z,21.4
2022-08-10T08:44:00.712Z,21.3
2022-08-10T08:45:00.483Z,21.9
2022-08-10T08:46:01.542Z,22.0
2022-08-10T08:47:00.296Z,21.9
2022-08-10T08:48:04.397Z,22.2
2022-08-10T08:49:00.315Z,22.3
2022-08-10T08:50:08.669Z,22.2
2022-08-10T08:51:01.584Z,21.9
2022-08-10T08:52:07.391Z,21.5
2022-08-10T08:53:00.304Z,21.5
2022-08-10T08:54:02.595Z,21.5
2022-08-10T08:55:00.275Z,21.0
2022-08-10T08:56:05.900Z,20.7
2022-08-10T08:57:00.322Z,21.1
2022-08-10T08:58:00.276Z,20.7
2022-08-10T08:59:00.901Z,20.9
2022-08-10T09:00:00.286Z,20.9
2022-08-10T09:01:00.278Z,20.6
2022-08-10T09:02:00.461Z,20.6
2022-08-10T09:03:00.276Z,20.4
2022-08-10T09:04:00.285Z,20.7
2022-08-10T09:05:00.317Z,21.2
2022-08-10T09:06:00.764Z,21.3
2022-08-10T09:07:00.426Z,21.1
2022-08-10T09:08:03.002Z,21.0
2022-08-10T09:09:00.680Z,21.1
2022-08-10T09:10:00.382Z,20.6
2022-08-10T09:11:00.262Z,20.7
2022-08-10T09:12:00.296Z,20.9
2022-08-10T09:13:01.529Z,20.8
2022-08-10T09:14:00.273Z,21.3
2022-08-10T09:15:00.458Z,21.2
2022-08-10T09:16:00.935Z,21.1
2022-08-10T09:17:00.292Z,21.4
2022-08-10T09:18:00.351Z,21.0
2022-08-10T09:19:00.297Z,21.1
2022-08-10T09:20:00.286Z,20.9
2022-08-10T09:21:00.350Z,20.7
2022-08-10T09:22:17.304Z,20.3
2022-08-10T09:23:00.321Z,20.4
2022-08-10T09:24:04.661Z,20.5
2022-08-10T09:25:00.387Z,20.7
2022-08-10T09:26:00.292Z,20.5
2022-08-10T09:27:00.296Z,20.4
2022-08-10T09:28:00.324Z,20.4
2022-08-10T09:29:12.948Z,20.6
2022-08-10T09:30:00.394Z,20.9
2022-08-10T09:31:22.143Z,20.7
2022-08-10T09:36:15.985Z,20.9
2022-08-10T09:36:20.092Z,20.9
2022-08-10T09:36:21.262Z,20.2
2022-08-10T09:36:23.689Z,20.4
2022-08-10T09:36:24.066Z,20.3
2022-08-10T09:37:00.341Z,20.5
2022-08-10T09:38:01.780Z,20.3
2022-08-10T09:39:00.311Z,20.1
2022-08-10T09:40:48.467Z,20.0
2022-08-10T09:41:05.030Z,20.2
2022-08-10T09:42:00.373Z,20.2
2022-08-10T09:43:21.924Z,20.5
2022-08-10T09:44:00.398Z,20.5
2022-08-10T09:45:00.339Z,20.4
2022-08-10T09:46:00.332Z,20.4
2022-08-10T09:47:00.455Z,20.5
2022-08-10T09:48:03.071Z,20.7
2022-08-10T09:49:00.295Z,20.6
2022-08-10T09:50:04.445Z,20.6
2022-08-10T09:52:00.326Z,20.2
2022-08-10T09:53:00.325Z,20.1
2022-08-10T09:54:00.299Z,20.1
2022-08-10T09:55:00.394Z,20.3
2022-08-10T09:56:18.046Z,19.9
2022-08-10T09:57:24.462Z,19.8
2022-08-10T09:58:00.488Z,20.0
2022-08-10T09:59:26.860Z,20.4
2022-08-10T10:00:02.548Z,20.0
2022-08-10T10:01:00.298Z,19.9
2022-08-10T10:02:03.639Z,19.9
2022-08-10T10:03:00.354Z,19.7
2022-08-10T10:04:00.315Z,19.6
2022-08-10T10:05:00.290Z,20.0
2022-08-10T10:06:00.327Z,19.8
2022-08-10T10:07:00.399Z,20.0
2022-08-10T10:08:00.408Z,20.2
2022-08-10T10:09:10.194Z,20.1
2022-08-10T10:10:00.318Z,20.1
2022-08-10T10:11:00.323Z,20.1
2022-08-10T10:12:07.661Z,20.3
2022-08-10T10:13:00.310Z,20.1
2022-08-10T10:14:02.793Z,20.4
2022-08-10T10:15:00.306Z,20.2
2022-08-10T10:16:00.366Z,20.2
2022-08-10T10:17:00.374Z,20.2
2022-08-10T10:18:00.327Z,19.9
2022-08-10T10:19:00.587Z,20.1
2022-08-10T10:20:00.417Z,20.3
2022-08-10T10:21:00.312Z,20.3
2022-08-10T10:22:00.407Z,20.0
2022-08-10T10:23:00.318Z,19.9
2022-08-10T10:24:21.239Z,20.1
2022-08-10T10:25:00.412Z,19.7
2022-08-10T10:26:05.011Z,19.5
2022-08-10T10:27:00.339Z,19.6
2022-08-10T10:28:00.371Z,19.6
2022-08-10T10:29:30.905Z,19.7
2022-08-10T10:30:00.334Z,19.8
2022-08-10T10:31:00.442Z,20.1
2022-08-10T10:32:00.327Z,19.9
2022-08-10T10:33:00.310Z,19.9
2022-08-10T10:34:00.375Z,20.0
2022-08-10T10:35:00.327Z,20.0
2022-08-10T10:36:00.302Z,20.2
2022-08-10T10:37:00.461Z,20.2
2022-08-10T10:38:10.369Z,20.1
2022-08-10T10:39:00.302Z,20.0
2022-08-10T10:40:00.484Z,19.9
2022-08-10T10:41:00.299Z,20.3
2022-08-10T10:42:04.315Z,20.4
2022-08-10T10:43:00.417Z,20.2
2022-08-10T10:44:00.303Z,20.5
2022-08-10T10:45:00.315Z,20.2
2022-08-10T10:46:00.288Z,20.3
2022-08-10T10:47:00.306Z,20.3
2022-08-10T10:48:00.318Z,20.6
2022-08-10T10:49:00.395Z,20.9
2022-08-10T10:50:00.334Z,20.8
2022-08-10T10:51:00.317Z,20.5
2022-08-10T10:52:02.195Z,20.4
2022-08-10T10:53:00.300Z,20.4
2022-08-10T10:54:00.301Z,20.5
2022-08-10T10:55:00.431Z,20.4
2022-08-10T10:56:15.105Z,20.1
2022-08-10T10:57:00.323Z,20.2
2022-08-10T10:58:01.178Z,20.5
2022-08-10T10:59:00.316Z,20.5
2022-08-10T11:00:00.391Z,20.4
2022-08-10T11:01:00.426Z,20.6
2022-08-10T11:02:00.331Z,20.4
2022-08-10T11:03:00.312Z,20.7
2022-08-10T11:04:00.324Z,20.6
2022-08-10T11:05:00.389Z,20.6
2022-08-10T11:06:00.328Z,20.6
2022-08-10T11:07:00.579Z,20.3
2022-08-10T11:08:00.314Z,20.2
2022-08-10T11:09:00.336Z,20.4
2022-08-10T11:10:04.900Z,20.6
2022-08-10T11:11:00.411Z,20.7
2022-08-10T11:12:02.908Z,20.8
2022-08-10T11:13:06.911Z,20.7
2022-08-10T11:14:23.494Z,20.7
2022-08-10T11:15:00.331Z,20.6
2022-08-10T11:16:00.381Z,20.5
2022-08-10T11:17:00.503Z,20.7
2022-08-10T11:18:00.318Z,20.7
2022-08-10T11:19:00.317Z,20.6
2022-08-10T11:20:02.244Z,20.5
2022-08-10T11:21:00.401Z,20.6
2022-08-10T11:22:00.468Z,20.6
2022-08-10T11:23:00.320Z,20.8
2022-08-10T11:24:47.893Z,21.5
2022-08-10T11:25:00.314Z,21.8
2022-08-10T11:26:00.298Z,21.6
2022-08-10T11:27:00.530Z,21.4
2022-08-10T11:28:00.305Z,21.6
2022-08-10T11:29:00.427Z,21.5
2022-08-10T11:30:00.560Z,21.6
2022-08-10T11:31:00.535Z,22.1
2022-08-10T11:32:00.296Z,21.9
2022-08-10T11:33:00.400Z,21.9
2022-08-10T11:34:46.977Z,21.9
2022-08-10T11:35:11.958Z,21.7
2022-08-10T11:36:00.407Z,21.6
2022-08-10T11:37:00.299Z,21.7
2022-08-10T11:38:30.999Z,21.8
2022-08-10T11:39:14.112Z,21.7
2022-08-10T11:40:00.404Z,21.9
2022-08-10T11:42:05.411Z,22.3
2022-08-10T11:42:12.441Z,22.0
2022-08-10T11:43:00.362Z,22.5
2022-08-10T11:44:00.301Z,22.7
2022-08-10T11:45:00.393Z,22.6
2022-08-10T11:46:07.453Z,22.8
2022-08-10T11:47:00.437Z,22.4
2022-08-10T11:48:00.381Z,22.4
2022-08-10T11:49:03.580Z,22.4
2022-08-10T11:50:00.426Z,22.5
2022-08-10T11:51:00.400Z,22.2
2022-08-10T11:52:00.364Z,22.3
2022-08-10T11:53:00.319Z,22.1
2022-08-10T11:54:00.395Z,22.1
2022-08-10T11:55:00.303Z,22.2
2022-08-10T11:56:00.454Z,22.5
2022-08-10T11:57:02.400Z,22.7
2022-08-10T11:58:00.326Z,22.7
2022-08-10T11:59:00.348Z,22.1
2022-08-10T12:00:00.536Z,21.9
2022-08-10T12:01:00.329Z,22.0
2022-08-10T12:02:00.488Z,22.4
2022-08-10T12:03:00.757Z,22.5
2022-08-10T12:04:00.414Z,22.4
2022-08-10T12:05:00.351Z,21.9
2022-08-10T12:06:00.452Z,22.2
2022-08-10T12:07:00.380Z,22.4
2022-08-10T12:10:02.677Z,22.6
2022-08-10T12:10:03.505Z,22.3
2022-08-10T12:10:11.622Z,22.2
2022-08-10T12:11:00.722Z,22.1
2022-08-10T12:12:00.599Z,22.3
2022-08-10T12:13:00.599Z,22.2
2022-08-10T12:14:20.111Z,22.2
2022-08-10T12:15:00.659Z,22.4
2022-08-10T12:16:05.146Z,22.7
2022-08-10T12:17:00.701Z,22.9
2022-08-10T12:18:00.419Z,22.9
2022-08-10T12:19:00.325Z,22.7
2022-08-10T12:20:02.167Z,23.0
2022-08-10T12:21:00.639Z,23.0
2022-08-10T12:22:05.614Z,23.0
2022-08-10T12:23:00.489Z,22.9
2022-08-10T12:24:02.541Z,23.1
2022-08-10T12:25:00.301Z,23.0
2022-08-10T12:26:00.427Z,23.1
2022-08-10T12:27:00.344Z,23.2
2022-08-10T12:28:00.308Z,23.1
2022-08-10T12:29:00.385Z,23.1
2022-08-10T12:30:00.307Z,23.1
2022-08-10T12:31:00.594Z,23.1
2022-08-10T12:32:00.382Z,23.2
2022-08-10T12:33:00.382Z,23.2
2022-08-10T12:34:01.737Z,23.3
2022-08-10T12:35:00.404Z,23.2
2022-08-10T12:36:16.919Z,23.3
2022-08-10T12:37:00.386Z,23.2
2022-08-10T12:38:00.403Z,23.5
2022-08-10T12:39:00.333Z,23.5
2022-08-10T12:40:31.265Z,23.5
2022-08-10T12:41:00.295Z,23.6
2022-08-10T12:42:00.328Z,23.6
2022-08-10T12:43:02.400Z,23.7
2022-08-10T12:44:07.898Z,23.8
2022-08-10T12:45:00.306Z,23.7
2022-08-10T12:46:05.816Z,23.7
2022-08-10T12:47:00.376Z,23.5
2022-08-10T12:48:00.354Z,23.6
2022-08-10T12:49:00.294Z,23.7
2022-08-10T12:50:30.183Z,24.0
2022-08-10T12:51:00.352Z,23.9
2022-08-10T12:52:00.378Z,24.2
2022-08-10T12:53:00.285Z,24.4
2022-08-10T12:54:00.321Z,24.4
2022-08-10T12:55:00.359Z,24.4
2022-08-10T12:56:00.363Z,24.6
2022-08-10T12:57:00.331Z,24.5
2022-08-10T12:58:00.346Z,24.7
2022-08-10T12:59:01.513Z,24.6
2022-08-10T13:00:00.310Z,24.7
2022-08-10T13:01:15.635Z,24.8
2022-08-10T13:02:06.318Z,24.9
2022-08-10T13:03:00.441Z,24.8
2022-08-10T13:04:22.340Z,24.6
2022-08-10T13:05:00.368Z,24.6
2022-08-10T13:06:02.801Z,24.5
2022-08-10T13:07:00.367Z,24.5
2022-08-10T13:08:25.466Z,24.5
2022-08-10T13:09:00.280Z,24.6
2022-08-10T13:10:00.345Z,24.8
2022-08-10T13:11:00.392Z,24.9
2022-08-10T13:12:39.447Z,24.8
2022-08-10T13:13:00.352Z,24.9
2022-08-10T13:14:00.314Z,24.9
2022-08-10T13:15:00.301Z,25.0
2022-08-10T13:16:00.321Z,25.2
2022-08-10T13:17:00.449Z,25.2
2022-08-10T13:18:00.444Z,25.2
2022-08-10T13:19:00.399Z,25.2